Time;durP1;ratioP1;P1;durP2;ratioP2;P2;SDS_P1;SDS_P2;PMS_P1;PMS_P2;Temp;Humidity;BMP_temperature;BMP_pressure;BME280_temperature;BME280_humidity;BME280_pressure;Samples;Min_cycle;Max_cycle;Signal;HPM_P1;HPM_P2
2024/03/15 06:54:03;;;;;;;3.03;1.65;;;;;;;10.89;74.97;96266.56;2105409;27;20517;-61
2024/03/15 06:55:07;;;;;;;7.45;1.98;;;;;;;10.89;75.20;96267.41;2099175;28;20596;-61
2024/03/15 06:56:11;;;;;;;5.05;1.63;;;;;;;11.13;74.12;96268.81;2090049;28;20251;-61
2024/03/15 06:57:12;;;;;;;4.05;1.42;;;;;;;11.36;73.43;96268.41;2089267;28;20307;-62
2024/03/15 06:58:14;;;;;;;4.88;1.73;;;;;;;11.65;72.90;96273.84;2086543;28;20198;-62
2024/03/15 06:59:24;;;;;;;5.05;1.80;;;;;;;12.69;69.83;96273.25;2088627;28;20203;-61
2024/03/15 07:00:29;;;;;;;4.20;1.55;;;;;;;13.03;68.17;96274.69;2091985;28;20206;-61
2024/03/15 07:01:31;;;;;;;5.13;1.70;;;;;;;12.95;68.18;96276.09;2090763;28;20203;-62
2024/03/15 07:02:32;;;;;;;3.13;1.40;;;;;;;13.03;67.89;96276.50;2089934;28;20314;-61
2024/03/15 07:03:34;;;;;;;11.50;1.65;;;;;;;13.06;68.72;96284.16;2089527;28;20204;-61
2024/03/15 07:04:35;;;;;;;5.40;1.40;;;;;;;13.52;66.78;96275.28;2089937;28;20625;-62
2024/03/15 07:08:35;;;;;;;3.22;1.60;;;;;;;13.47;66.91;96274.72;2108027;27;20594;-59
2024/03/15 07:09:38;;;;;;;6.60;2.05;;;;;;;14.22;64.50;96279.63;2103659;28;20202;-59
2024/03/15 07:10:39;;;;;;;3.38;1.50;;;;;;;14.37;63.80;96277.75;2096993;28;20228;-60
2024/03/15 07:11:47;;;;;;;3.17;1.58;;;;;;;14.46;63.49;96273.66;2093573;28;20226;-61
2024/03/15 07:12:49;;;;;;;4.68;1.95;;;;;;;14.48;62.96;96271.78;2098182;28;20214;-63
2024/03/15 07:13:51;;;;;;;6.55;1.90;;;;;;;14.56;63.27;96266.03;2098561;28;20207;-62
2024/03/15 07:14:53;;;;;;;4.43;1.70;;;;;;;15.29;61.69;96275.16;2095439;28;20199;-62
2024/03/15 07:15:55;;;;;;;3.58;1.27;;;;;;;14.86;61.66;96271.88;2099632;28;20671;-62
2024/03/15 07:16:57;;;;;;;3.33;1.77;;;;;;;14.66;62.76;96267.13;2094064;28;20252;-62
2024/03/15 07:18:04;;;;;;;5.55;1.77;;;;;;;14.64;63.74;96269.88;2095873;28;20714;-62
2024/03/15 07:19:06;;;;;;;2.90;1.73;;;;;;;14.99;62.41;96268.41;2090747;28;20297;-62
2024/03/15 07:20:08;;;;;;;9.88;2.15;;;;;;;15.33;61.70;96263.47;2099698;28;20198;-62
2024/03/15 07:21:11;;;;;;;5.43;1.30;;;;;;;15.45;61.34;96270.50;2099452;28;20226;-62
2024/03/15 07:22:15;;;;;;;3.88;1.42;;;;;;;15.61;60.60;96270.25;2097374;28;20219;-63
2024/03/15 07:23:17;;;;;;;2.50;1.30;;;;;;;15.43;61.12;96275.00;2098826;28;20226;-62
2024/03/15 07:24:18;;;;;;;3.17;1.70;;;;;;;15.60;60.50;96272.97;2097852;28;20203;-63
2024/03/15 07:25:20;;;;;;;3.90;1.58;;;;;;;15.76;60.03;96278.00;2096501;28;20227;-63
2024/03/15 07:26:22;;;;;;;3.20;1.58;;;;;;;16.42;58.98;96270.59;2095090;28;20203;-63
2024/03/15 07:27:23;;;;;;;3.83;1.70;;;;;;;16.55;58.26;96274.97;2092865;28;20223;-63
2024/03/15 07:28:25;;;;;;;4.10;1.65;;;;;;;16.04;59.07;96274.25;2098312;28;20211;-62
2024/03/15 07:29:27;;;;;;;4.40;1.40;;;;;;;16.04;59.12;96245.28;2095309;28;20218;-63
2024/03/15 07:30:28;;;;;;;4.25;1.65;;;;;;;16.45;59.24;96277.44;2096467;28;20969;-63
2024/03/15 07:31:30;;;;;;;5.13;2.22;;;;;;;16.16;58.97;96275.13;2098568;28;20530;-63
2024/03/15 07:32:35;;;;;;;4.72;2.25;;;;;;;16.04;59.19;96265.53;2095930;28;20224;-63
2024/03/15 07:33:38;;;;;;;2.67;1.25;;;;;;;16.51;58.95;96274.34;2094579;28;20286;-63
2024/03/15 07:34:40;;;;;;;2.72;1.70;;;;;;;16.73;58.00;96272.72;2095495;28;20200;-62
2024/03/15 07:35:41;;;;;;;6.45;1.80;;;;;;;16.85;57.71;96276.22;2093924;28;20192;-62
2024/03/15 07:36:44;;;;;;;6.07;2.00;;;;;;;16.51;58.52;96282.25;2093084;28;20521;-62
2024/03/15 07:37:47;;;;;;;6.82;1.77;;;;;;;16.16;58.81;96270.72;2095330;28;20698;-62
2024/03/15 07:38:48;;;;;;;6.95;1.90;;;;;;;16.43;58.64;96280.19;2099838;28;20196;-63
2024/03/15 07:39:51;;;;;;;5.07;1.50;;;;;;;16.09;59.10;96280.03;2097104;28;20199;-63
2024/03/15 07:40:57;;;;;;;4.32;1.85;;;;;;;16.22;59.25;96284.41;2097719;28;20306;-63
2024/03/15 07:41:59;;;;;;;6.00;1.83;;;;;;;16.45;58.96;96274.78;2095399;28;20253;-63
2024/03/15 07:43:02;;;;;;;3.60;2.05;;;;;;;16.75;58.45;96287.47;2097161;28;20196;-63
2024/03/15 07:44:03;;;;;;;7.10;2.40;;;;;;;17.51;57.38;96289.66;2102072;28;20721;-63
2024/03/15 07:45:05;;;;;;;5.57;2.28;;;;;;;16.84;57.92;96287.75;2092154;28;20691;-63
2024/03/15 07:46:06;;;;;;;7.82;2.03;;;;;;;16.91;58.17;96289.84;2089187;28;20200;-63
2024/03/15 07:47:09;;;;;;;7.82;1.60;;;;;;;17.52;56.56;96290.50;2095027;28;20183;-63
2024/03/15 07:48:11;;;;;;;4.18;2.30;;;;;;;18.05;55.04;96290.69;2093726;28;20231;-63
2024/03/15 07:49:12;;;;;;;5.40;1.67;;;;;;;18.33;54.84;96284.97;2093205;28;20196;-63
2024/03/15 07:50:14;;;;;;;4.38;1.50;;;;;;;18.34;54.80;96286.66;2092456;28;20207;-63
2024/03/15 07:51:16;;;;;;;9.25;1.40;;;;;;;19.38;52.65;96287.69;2092583;28;20193;-63
2024/03/15 07:52:18;;;;;;;7.95;1.90;;;;;;;18.95;52.74;96290.50;2094192;28;20691;-63
2024/03/15 07:53:19;;;;;;;4.32;1.80;;;;;;;18.43;54.03;96289.38;2097047;28;20199;-63
2024/03/15 07:54:23;;;;;;;10.02;1.80;;;;;;;18.60;53.96;96284.50;2095027;28;20227;-63
2024/03/15 07:55:25;;;;;;;2.95;1.40;;;;;;;18.46;54.06;96290.94;2094351;28;20199;-63
2024/03/15 07:56:26;;;;;;;5.32;1.88;;;;;;;18.07;55.42;96293.22;2095543;28;20809;-63
2024/03/15 07:57:28;;;;;;;5.25;1.67;;;;;;;18.06;55.29;96289.72;2090511;28;20668;-63
2024/03/15 07:58:31;;;;;;;4.80;2.00;;;;;;;18.39;54.63;96298.53;2092021;28;20525;-63
2024/03/15 07:59:33;;;;;;;13.50;1.77;;;;;;;18.54;54.51;96288.50;2095989;28;20250;-63
2024/03/15 08:00:35;;;;;;;7.72;1.80;;;;;;;18.52;54.31;96289.59;2096929;28;20326;-63
2024/03/15 08:01:36;;;;;;;5.00;1.90;;;;;;;18.48;54.61;96294.28;2096859;28;20224;-63
2024/03/15 08:02:38;;;;;;;7.50;2.22;;;;;;;19.03;53.67;96298.63;2097217;28;20284;-63
2024/03/15 08:03:41;;;;;;;8.98;2.00;;;;;;;18.76;54.19;96295.47;2097639;28;20195;-63
2024/03/15 08:04:47;;;;;;;3.78;1.75;;;;;;;18.96;53.88;96295.66;2096125;28;20195;-63
2024/03/15 08:05:49;;;;;;;5.05;1.98;;;;;;;18.62;54.19;96301.09;2097258;28;20267;-63
2024/03/15 08:06:51;;;;;;;3.50;1.40;;;;;;;18.56;54.53;96301.59;2097497;28;20210;-63
2024/03/15 08:07:56;;;;;;;3.70;1.70;;;;;;;18.55;54.55;96305.19;2094306;28;20262;-63
2024/03/15 08:08:57;;;;;;;3.45;1.63;;;;;;;18.58;55.12;96307.59;2099707;28;20289;-63
2024/03/15 08:09:59;;;;;;;6.03;1.90;;;;;;;18.58;54.97;96300.50;2092814;28;20203;-63
2024/03/15 08:11:00;;;;;;;4.82;1.30;;;;;;;18.48;55.51;96304.03;2090527;28;20306;-63
2024/03/15 08:12:08;;;;;;;6.22;1.98;;;;;;;18.49;56.05;96303.91;2098948;28;20195;-63
2024/03/15 08:13:12;;;;;;;6.57;1.85;;;;;;;18.65;55.58;96298.22;2092931;28;20196;-63
2024/03/15 08:14:14;;;;;;;5.47;1.63;;;;;;;18.72;55.59;96299.34;2092991;28;20224;-63
2024/03/15 08:15:15;;;;;;;8.60;2.05;;;;;;;18.98;55.02;96300.81;2095262;28;20197;-63
2024/03/15 08:16:23;;;;;;;5.10;1.88;;;;;;;18.50;56.34;96296.81;2091700;28;20222;-63
2024/03/15 08:17:24;;;;;;;3.25;1.77;;;;;;;18.76;56.10;96302.59;2090719;28;20329;-63
2024/03/15 08:18:29;;;;;;;3.70;1.65;;;;;;;18.39;56.24;96300.34;2092486;28;20708;-63
2024/03/15 08:19:34;;;;;;;6.20;2.10;;;;;;;18.67;56.53;96298.06;2092736;28;20191;-63
2024/03/15 08:20:35;;;;;;;2.70;1.50;;;;;;;18.62;56.07;96305.53;2091776;28;20196;-63
2024/03/15 08:21:38;;;;;;;7.65;1.45;;;;;;;18.52;56.28;96302.81;2090813;28;20206;-64
2024/03/15 08:22:39;;;;;;;2.80;1.60;;;;;;;18.26;56.26;96300.50;2090140;28;20331;-63
2024/03/15 08:23:45;;;;;;;5.97;1.45;;;;;;;18.35;56.39;96301.56;2088730;28;20196;-63
2024/03/15 08:24:46;;;;;;;3.58;1.67;;;;;;;18.44;56.24;96308.72;2088265;28;20196;-63
2024/03/15 08:25:48;;;;;;;4.95;1.13;;;;;;;18.44;56.40;96308.72;2091598;28;20197;-63
2024/03/15 08:26:49;;;;;;;4.00;1.63;;;;;;;18.53;55.57;96297.41;2094552;28;20196;-63
2024/03/15 08:27:51;;;;;;;4.43;1.10;;;;;;;18.04;56.96;96296.97;2092036;28;20228;-63
2024/03/15 08:28:56;;;;;;;6.95;1.90;;;;;;;18.35;56.85;96302.38;2089429;28;20242;-63
2024/03/15 08:29:57;;;;;;;4.95;1.35;;;;;;;18.36;56.17;96282.06;2084647;28;20242;-63
2024/03/15 08:30:59;;;;;;;7.32;1.90;;;;;;;18.79;55.76;96290.91;2083623;28;20205;-63
2024/03/15 08:32:01;;;;;;;4.82;1.45;;;;;;;18.53;56.07;96302.69;2089242;28;20682;-63
2024/03/15 08:33:03;;;;;;;5.97;1.90;;;;;;;18.68;56.38;96290.00;2090154;28;20235;-63
2024/03/15 08:34:05;;;;;;;3.67;1.92;;;;;;;18.23;56.15;96259.31;2088977;28;20200;-63
2024/03/15 08:35:14;;;;;;;3.55;2.10;;;;;;;18.64;55.63;96295.66;2085203;28;20250;-63
2024/03/15 08:36:16;;;;;;;3.83;1.90;;;;;;;18.38;56.15;96296.84;2090979;28;20206;-63
2024/03/15 08:37:18;;;;;;;9.30;3.03;;;;;;;18.35;56.44;96294.47;2091268;28;20580;-63
2024/03/15 08:38:19;;;;;;;11.02;4.72;;;;;;;18.66;55.78;96294.56;2088624;28;20198;-63
2024/03/15 08:39:24;;;;;;;5.65;2.80;;;;;;;18.73;55.77;96302.84;2088020;28;20216;-63
2024/03/15 08:40:26;;;;;;;6.22;2.47;;;;;;;18.82;54.90;96303.91;2087856;28;20619;-63
2024/03/15 08:41:27;;;;;;;4.28;2.40;;;;;;;18.78;55.41;96303.31;2090250;28;20200;-63
2024/03/15 08:42:29;;;;;;;2.83;1.25;;;;;;;18.33;55.24;96274.41;2081619;28;20228;-63
2024/03/15 08:43:31;;;;;;;12.77;5.38;;;;;;;18.86;55.70;96297.38;2083549;28;20347;-63
2024/03/15 08:44:32;;;;;;;6.38;2.67;;;;;;;18.91;54.76;96300.50;2088265;28;20221;-64
2024/03/15 08:45:34;;;;;;;5.13;1.70;;;;;;;19.24;54.65;96311.84;2087263;28;20215;-63
2024/03/15 08:46:36;;;;;;;15.48;7.32;;;;;;;19.08;55.16;96301.72;2084617;28;20211;-63
2024/03/15 08:47:39;;;;;;;12.13;6.40;;;;;;;19.47;54.37;96312.53;2082872;28;20299;-63
2024/03/15 08:48:59;;;;;;;7.28;2.92;;;;;;;19.47;54.03;96307.22;2090713;28;20203;-63
2024/03/15 08:50:01;;;;;;;3.38;1.50;;;;;;;19.51;53.69;96307.81;2091184;28;20288;-63
2024/03/15 08:51:06;;;;;;;4.68;1.67;;;;;;;18.89;55.52;96307.69;2090466;28;20200;-63
2024/03/15 08:52:08;;;;;;;2.88;1.23;;;;;;;18.56;57.01;96293.66;2086434;28;20197;-63
2024/03/15 08:53:11;;;;;;;3.40;1.30;;;;;;;18.00;58.03;96314.00;2089590;28;20208;-63
2024/03/15 08:54:13;;;;;;;2.28;1.00;;;;;;;17.30;59.39;96318.56;2090960;28;20258;-63
2024/03/15 08:55:15;;;;;;;3.25;1.50;;;;;;;16.95;59.59;96308.88;2094972;28;20327;-63
2024/03/15 08:56:18;;;;;;;5.38;1.88;;;;;;;16.37;60.88;96311.44;2093010;28;20196;-63
2024/03/15 08:57:22;;;;;;;3.33;1.35;;;;;;;16.03;63.24;96304.16;2090715;28;20303;-63
2024/03/15 08:58:27;;;;;;;6.70;1.20;;;;;;;15.90;63.52;96309.47;2091661;28;20416;-63
2024/03/15 08:59:29;;;;;;;6.40;1.70;;;;;;;15.79;63.63;96314.63;2090058;28;20192;-63
2024/03/15 09:00:30;;;;;;;3.65;1.20;;;;;;;15.96;63.88;96310.81;2088480;28;20249;-62
2024/03/15 09:01:35;;;;;;;3.80;1.40;;;;;;;15.79;63.38;96312.81;2086199;28;20193;-63
2024/03/15 09:02:40;;;;;;;2.67;1.17;;;;;;;15.98;63.56;96314.19;2092332;28;20224;-63
2024/03/15 09:03:42;;;;;;;3.33;1.25;;;;;;;15.96;63.25;96308.19;2091561;28;20204;-62
2024/03/15 09:04:48;;;;;;;2.38;1.08;;;;;;;15.61;64.45;96303.63;2088494;28;20283;-63
2024/03/15 09:05:49;;;;;;;4.80;1.17;;;;;;;15.45;65.28;96309.97;2092257;28;20192;-63
2024/03/15 09:06:51;;;;;;;2.42;1.10;;;;;;;15.33;65.56;96311.63;2087666;28;20199;-63
2024/03/15 09:07:53;;;;;;;4.18;1.10;;;;;;;15.28;65.68;96311.13;2088482;28;20328;-63
2024/03/15 09:08:54;;;;;;;2.25;0.90;;;;;;;15.37;65.67;96309.63;2091135;28;20271;-63
2024/03/15 09:09:56;;;;;;;2.70;1.00;;;;;;;15.65;65.51;96299.81;2092944;28;20231;-63
2024/03/15 09:10:57;;;;;;;2.25;1.10;;;;;;;15.48;65.71;96307.09;2091730;28;20644;-62
2024/03/15 09:11:59;;;;;;;2.80;1.15;;;;;;;15.58;66.04;96303.81;2088400;28;20221;-63
2024/03/15 09:13:00;;;;;;;10.68;1.60;;;;;;;16.71;63.77;96303.63;2090594;28;20309;-63
2024/03/15 09:14:03;;;;;;;4.30;1.00;;;;;;;17.76;61.20;96299.13;2092768;28;20200;-63
2024/03/15 09:15:06;;;;;;;2.50;0.98;;;;;;;17.82;59.53;96300.44;2091677;28;20803;-59
2024/03/15 09:16:08;;;;;;;3.70;0.80;;;;;;;17.78;59.49;96302.47;2083974;28;20197;-59
2024/03/15 09:17:11;;;;;;;9.88;1.15;;;;;;;17.53;61.11;96306.19;2088593;28;20671;-60
2024/03/15 09:18:13;;;;;;;2.58;1.08;;;;;;;16.83;62.48;96300.09;2088094;28;20287;-60
2024/03/15 09:19:14;;;;;;;3.58;0.90;;;;;;;16.53;63.42;96311.97;2090013;28;20196;-60
2024/03/15 09:21:20;;;;;;;1.40;0.80;;;;;;;16.05;64.90;96314.59;2090407;28;20247;-59
2024/03/15 09:22:24;;;;;;;2.50;0.93;;;;;;;16.42;64.22;96314.56;2089687;28;20220;-59
2024/03/15 09:23:25;;;;;;;3.95;1.05;;;;;;;15.96;65.03;96305.56;2088928;28;20260;-59
2024/03/15 09:24:31;;;;;;;3.83;1.92;;;;;;;15.64;65.38;96313.91;2085935;28;20731;-59
2024/03/15 09:25:33;;;;;;;3.90;1.83;;;;;;;15.57;66.32;96316.16;2084663;28;20307;-59
2024/03/15 09:26:35;;;;;;;4.18;1.33;;;;;;;15.31;66.98;96321.44;2087720;28;20212;-60
2024/03/15 09:27:36;;;;;;;5.45;1.60;;;;;;;15.23;67.26;96315.84;2090957;28;20658;-63
2024/03/15 09:28:43;;;;;;;4.10;1.48;;;;;;;15.16;67.19;96314.56;2091859;28;20196;-63
2024/03/15 09:29:49;;;;;;;4.53;1.48;;;;;;;15.04;67.86;96318.91;2088457;28;20213;-63
2024/03/15 09:30:53;;;;;;;2.53;1.00;;;;;;;14.94;67.78;96315.22;2087707;28;20225;-63
2024/03/15 09:32:10;;;;;;;4.60;1.50;;;;;;;15.00;67.38;96306.91;2091204;28;20283;-63
2024/03/15 09:33:18;;;;;;;4.93;1.40;;;;;;;14.83;68.18;96315.91;2092056;28;20204;-63
2024/03/15 09:34:22;;;;;;;16.95;1.98;;;;;;;14.77;68.56;96304.03;2091166;28;20702;-63
2024/03/15 09:35:25;;;;;;;5.10;1.17;;;;;;;14.74;68.60;96313.91;2092223;28;20204;-63
2024/03/15 09:36:28;;;;;;;4.07;1.10;;;;;;;14.72;68.81;96308.75;2089270;28;20196;-63
2024/03/15 09:37:35;;;;;;;29.92;4.45;;;;;;;14.73;69.12;96309.59;2089968;28;20225;-65
2024/03/15 09:38:36;;;;;;;9.23;1.85;;;;;;;14.71;69.28;96316.75;2086759;28;20228;-63
2024/03/15 09:39:38;;;;;;;2.92;1.35;;;;;;;14.78;69.82;96312.75;2085782;28;20282;-63
2024/03/15 09:40:40;;;;;;;3.58;1.30;;;;;;;14.75;69.36;96307.72;2088674;28;20191;-63
2024/03/15 09:41:42;;;;;;;1.85;0.93;;;;;;;14.70;69.60;96313.28;2088432;28;20192;-63
2024/03/15 09:42:46;;;;;;;2.83;0.80;;;;;;;14.67;69.80;96316.94;2085199;28;20230;-63
2024/03/15 09:43:48;;;;;;;1.90;0.75;;;;;;;14.53;69.20;96317.81;2088285;28;20319;-62
2024/03/15 09:44:50;;;;;;;2.85;0.80;;;;;;;14.36;69.11;96312.84;2088387;28;20208;-62
2024/03/15 09:45:53;;;;;;;3.60;1.13;;;;;;;14.33;69.99;96318.28;2089527;28;20197;-63
2024/03/15 09:46:55;;;;;;;2.00;0.88;;;;;;;14.19;70.45;96309.53;2087010;28;20334;-62
2024/03/15 09:47:59;;;;;;;1.70;0.70;;;;;;;14.08;70.72;96308.53;2090209;28;20584;-63
2024/03/15 09:49:01;;;;;;;2.53;1.20;;;;;;;13.89;71.36;96320.22;2087466;28;20200;-63
2024/03/15 09:50:03;;;;;;;5.22;1.13;;;;;;;13.78;72.60;96317.44;2087142;28;20209;-63
2024/03/15 09:51:08;;;;;;;2.90;0.80;;;;;;;13.74;72.63;96316.75;2089781;28;20232;-63
2024/03/15 09:52:11;;;;;;;3.08;1.30;;;;;;;13.72;73.16;96323.88;2089299;28;20655;-63
2024/03/15 09:53:12;;;;;;;18.52;2.10;;;;;;;13.70;72.73;96320.53;2089465;28;20192;-63
2024/03/15 09:54:14;;;;;;;4.72;1.83;;;;;;;13.63;73.40;96317.44;2085907;28;20201;-62
2024/03/15 09:55:19;;;;;;;5.25;1.77;;;;;;;13.67;73.73;96318.09;2088267;28;20204;-62
2024/03/15 09:56:24;;;;;;;2.90;1.00;;;;;;;13.47;73.77;96307.06;2088443;28;20287;-63
2024/03/15 09:57:26;;;;;;;7.72;1.10;;;;;;;13.64;74.12;96313.03;2088279;28;20986;-63
2024/03/15 09:58:28;;;;;;;5.25;1.40;;;;;;;13.69;73.51;96324.09;2093217;28;20598;-63
2024/03/15 09:59:34;;;;;;;20.98;2.17;;;;;;;13.63;73.93;96327.91;2090918;28;20200;-62
2024/03/15 10:08:07;;;;;;;21.52;3.80;;;;;;;13.26;73.17;96330.16;2105608;27;20518;-62
2024/03/15 10:09:12;;;;;;;4.00;1.52;;;;;;;13.07;73.45;96301.56;2103874;28;20195;-62
2024/03/15 10:10:14;;;;;;;27.02;8.18;;;;;;;13.30;73.66;96336.06;2097331;28;20293;-63
2024/03/15 10:11:16;;;;;;;10.63;5.65;;;;;;;13.35;73.44;96334.00;2098418;28;20231;-59
2024/03/15 10:12:18;;;;;;;21.40;7.47;;;;;;;13.39;73.22;96335.50;2094971;28;20753;-59
2024/03/15 10:13:21;;;;;;;7.70;2.20;;;;;;;13.45;73.75;96337.78;2089986;28;20196;-59
2024/03/15 10:14:22;;;;;;;10.63;4.90;;;;;;;13.51;73.47;96337.41;2092430;28;20203;-59
2024/03/15 10:15:24;;;;;;;24.92;8.43;;;;;;;13.54;73.72;96339.81;2091368;28;20615;-59
2024/03/15 10:16:26;;;;;;;11.57;3.75;;;;;;;13.49;73.32;96346.31;2088946;28;20199;-59
2024/03/15 10:17:28;;;;;;;18.83;5.93;;;;;;;13.55;73.76;96335.44;2080275;28;20767;-63
2024/03/15 10:18:37;;;;;;;22.50;8.27;;;;;;;13.57;73.69;96327.47;2082733;28;20210;-63
2024/03/15 10:19:39;;;;;;;21.92;9.25;;;;;;;13.67;73.62;96333.81;2078828;28;20592;-63
2024/03/15 10:20:40;;;;;;;15.77;5.10;;;;;;;13.68;73.59;96327.63;2078725;28;20197;-63
2024/03/15 10:21:41;;;;;;;7.15;2.70;;;;;;;13.61;73.53;96323.69;2081482;28;20229;-63
2024/03/15 10:22:50;;;;;;;7.82;2.60;;;;;;;13.60;73.39;96335.13;2082356;28;20234;-62
2024/03/15 10:23:52;;;;;;;7.22;2.97;;;;;;;13.67;73.03;96341.69;2083658;28;20204;-63
2024/03/15 10:25:18;;;;;;;23.30;9.13;;;;;;;13.71;72.83;96343.19;2082157;28;20238;-63
2024/03/15 10:26:21;;;;;;;21.35;8.65;;;;;;;13.67;72.99;96331.19;2081054;28;20201;-65
2024/03/15 10:27:23;;;;;;;11.98;3.97;;;;;;;13.71;72.92;96341.41;2080214;28;20224;-63
2024/03/15 10:28:25;;;;;;;8.18;4.75;;;;;;;13.69;72.53;96331.97;2080810;28;20189;-63
2024/03/15 10:29:27;;;;;;;1.83;0.93;;;;;;;13.65;71.69;96349.66;2078274;28;20429;-62
2024/03/15 10:30:29;;;;;;;5.90;1.50;;;;;;;13.68;71.35;96335.50;2079320;28;20204;-63
2024/03/15 10:31:31;;;;;;;4.90;2.20;;;;;;;13.71;71.89;96337.94;2080615;28;20197;-62
2024/03/15 10:32:33;;;;;;;3.53;2.72;;;;;;;13.76;72.23;96342.91;2081003;28;20705;-63
2024/03/15 10:33:35;;;;;;;20.17;3.92;;;;;;;13.78;71.97;96348.91;2082240;28;20299;-63
2024/03/15 10:34:38;;;;;;;3.35;2.10;;;;;;;13.66;72.28;96337.38;2082907;28;20283;-63
2024/03/15 10:35:39;;;;;;;3.70;1.58;;;;;;;13.58;72.20;96344.91;2080647;28;20248;-63
2024/03/15 10:36:41;;;;;;;2.55;1.13;;;;;;;13.47;71.58;96346.41;2082821;28;20205;-63
2024/03/15 10:37:47;;;;;;;4.57;1.00;;;;;;;13.35;72.13;96334.00;2081941;28;20244;-63
2024/03/15 10:38:49;;;;;;;6.97;1.10;;;;;;;13.41;72.03;96346.75;2078339;28;20250;-59
2024/03/15 10:39:51;;;;;;;4.28;1.10;;;;;;;13.42;72.63;96340.59;2078931;28;20221;-59
2024/03/15 10:40:53;;;;;;;2.20;0.93;;;;;;;13.52;72.08;96346.97;2082330;28;20201;-60
2024/03/15 10:41:54;;;;;;;1.90;0.85;;;;;;;13.45;71.78;96337.78;2082396;28;20699;-59
2024/03/15 10:43:02;;;;;;;3.05;0.93;;;;;;;13.45;72.25;96340.41;2078389;28;20225;-62
2024/03/15 10:44:13;;;;;;;3.80;1.23;;;;;;;13.37;72.25;96340.84;2079526;28;20247;-62
2024/03/15 10:45:20;;;;;;;2.00;0.90;;;;;;;13.47;72.52;96348.16;2081925;28;20683;-62
2024/03/15 10:46:21;;;;;;;2.30;1.02;;;;;;;13.46;72.61;96346.47;2082784;28;20204;-62
2024/03/15 10:47:23;;;;;;;3.83;1.30;;;;;;;13.43;72.82;96373.72;2080183;28;20247;-62
2024/03/15 10:48:26;;;;;;;2.97;1.10;;;;;;;13.44;72.09;96343.94;2081440;28;20213;-63
2024/03/15 10:49:28;;;;;;;4.05;0.90;;;;;;;13.40;71.69;96350.31;2081544;28;20193;-62
2024/03/15 10:50:30;;;;;;;2.20;1.23;;;;;;;13.44;71.57;96357.06;2081879;28;20291;-62
2024/03/15 10:51:36;;;;;;;3.33;0.98;;;;;;;13.54;71.97;96354.72;2085808;28;20196;-62
2024/03/15 10:52:42;;;;;;;2.28;1.10;;;;;;;13.60;71.33;96345.63;2083847;28;20220;-62
2024/03/15 10:53:45;;;;;;;3.70;1.00;;;;;;;13.65;71.14;96347.03;2080526;28;20641;-62
2024/03/15 10:54:48;;;;;;;3.45;1.10;;;;;;;13.74;70.94;96350.00;2082168;28;20204;-62
2024/03/15 10:55:50;;;;;;;3.28;1.10;;;;;;;13.64;70.56;96336.66;2081942;28;20720;-62
2024/03/15 10:56:51;;;;;;;3.30;1.20;;;;;;;13.70;70.98;96347.59;2078250;28;20197;-62
2024/03/15 10:58:05;;;;;;;5.70;1.27;;;;;;;13.94;70.76;96341.75;2076741;28;20228;-59
2024/03/15 10:59:08;;;;;;;2.42;1.00;;;;;;;14.18;70.36;96341.97;2081548;28;20200;-59
2024/03/15 11:00:19;;;;;;;4.10;1.30;;;;;;;14.31;70.26;96349.06;2081782;28;20653;-59
2024/03/15 11:01:23;;;;;;;5.32;1.33;;;;;;;14.42;70.13;96332.63;2081181;28;20810;-59
2024/03/15 11:02:25;;;;;;;2.30;1.08;;;;;;;14.41;69.96;96342.28;2075391;28;20795;-59
2024/03/15 11:03:31;;;;;;;1.70;0.90;;;;;;;14.47;70.11;96344.50;2082399;28;20204;-59
2024/03/15 11:04:33;;;;;;;2.08;0.90;;;;;;;14.38;69.75;96363.47;2082002;28;20773;-59
2024/03/15 11:05:35;;;;;;;4.28;1.33;;;;;;;14.21;69.63;96339.16;2085507;28;20292;-59
2024/03/15 11:06:42;;;;;;;3.28;0.90;;;;;;;14.20;69.82;96334.84;2085454;28;20215;-60
2024/03/15 11:07:46;;;;;;;4.30;1.23;;;;;;;14.36;70.04;96334.69;2079305;28;20268;-59
2024/03/15 11:08:47;;;;;;;5.88;1.10;;;;;;;14.40;69.69;96332.72;2080718;28;20579;-60
2024/03/15 11:09:54;;;;;;;4.45;1.10;;;;;;;14.40;69.71;96327.47;2081258;28;20214;-59
2024/03/15 11:11:05;;;;;;;5.72;1.00;;;;;;;14.46;70.29;96329.69;2080802;28;20204;-59
2024/03/15 11:12:14;;;;;;;4.82;1.30;;;;;;;14.65;69.38;96326.72;2082251;28;20209;-57
2024/03/15 11:13:15;;;;;;;5.40;1.00;;;;;;;14.72;68.76;96335.03;2082834;28;20205;-58
2024/03/15 11:14:22;;;;;;;4.40;1.40;;;;;;;14.91;68.47;96337.28;2080786;28;20279;-58
2024/03/15 11:15:23;;;;;;;2.25;1.13;;;;;;;15.42;67.92;96328.56;2083537;28;20296;-57
2024/03/15 11:16:25;;;;;;;4.47;1.33;;;;;;;16.42;64.68;96346.19;2082816;28;20201;-58
2024/03/15 11:17:27;;;;;;;3.08;1.25;;;;;;;16.71;63.81;96333.50;2081048;28;20225;-58
2024/03/15 11:18:35;;;;;;;2.13;0.90;;;;;;;16.21;64.54;96345.94;2085444;28;20414;-61
2024/03/15 11:19:47;;;;;;;2.35;1.10;;;;;;;15.84;65.74;96341.50;2077693;28;20673;-61
2024/03/15 11:20:53;;;;;;;2.65;1.00;;;;;;;15.51;65.98;96338.47;2075943;28;20198;-58
2024/03/15 11:22:04;;;;;;;2.38;1.17;;;;;;;15.25;66.57;96337.63;2079161;28;20201;-58
2024/03/15 11:23:14;;;;;;;4.07;1.08;;;;;;;15.01;66.21;96348.88;2078988;28;20213;-58
2024/03/15 11:24:16;;;;;;;6.57;1.10;;;;;;;14.86;66.99;96349.91;2076696;28;20200;-58
2024/03/15 11:25:17;;;;;;;3.95;1.40;;;;;;;14.76;67.61;96354.91;2077032;28;20571;-63
2024/03/15 11:26:21;;;;;;;6.32;2.30;;;;;;;14.77;67.49;96332.13;2076723;28;20200;-63
2024/03/15 11:27:24;;;;;;;10.38;3.30;;;;;;;14.78;67.71;96336.41;2076398;28;20252;-63
2024/03/15 11:28:34;;;;;;;3.63;1.60;;;;;;;15.09;66.83;96339.63;2075793;28;20233;-63
2024/03/15 11:29:36;;;;;;;14.23;6.28;;;;;;;15.16;67.29;96343.50;2077071;28;20645;-64
2024/03/15 11:30:39;;;;;;;8.73;3.88;;;;;;;15.56;65.88;96347.84;2076695;28;20646;-65
2024/03/15 11:31:45;;;;;;;10.13;4.53;;;;;;;15.85;64.46;96331.84;2077443;28;20813;-65
2024/03/15 11:32:46;;;;;;;13.27;5.32;;;;;;;16.25;63.93;96328.94;2074624;28;20222;-66
2024/03/15 11:33:51;;;;;;;3.60;1.30;;;;;;;16.82;62.69;96351.13;2075971;28;20229;-66
2024/03/15 11:34:53;;;;;;;17.80;9.20;;;;;;;16.92;61.73;96332.88;2076559;28;20204;-66
2024/03/15 11:35:57;;;;;;;9.82;3.35;;;;;;;16.54;61.71;96345.25;2075100;28;20202;-65
2024/03/15 11:36:58;;;;;;;19.50;9.30;;;;;;;16.22;61.82;96339.72;2075766;28;20197;-65
2024/03/15 11:38:00;;;;;;;23.05;12.02;;;;;;;15.99;62.83;96348.31;2062115;28;20236;-60
2024/03/15 11:39:02;;;;;;;27.40;14.15;;;;;;;15.40;63.58;96341.00;2074651;28;20197;-60
2024/03/15 11:40:04;;;;;;;12.93;5.07;;;;;;;15.59;64.17;96340.56;2080444;28;20201;-60
2024/03/15 11:41:06;;;;;;;12.48;6.93;;;;;;;15.51;64.80;96338.47;2080039;28;20258;-60
2024/03/15 11:42:10;;;;;;;15.40;7.45;;;;;;;15.69;63.87;96332.84;2074977;28;20202;-60
2024/03/15 11:43:13;;;;;;;13.70;7.20;;;;;;;15.34;63.98;96338.81;2076421;28;20201;-60
2024/03/15 11:44:14;;;;;;;12.68;8.57;;;;;;;15.17;64.61;96339.94;2076041;28;20198;-60
2024/03/15 11:45:17;;;;;;;30.80;16.33;;;;;;;15.31;65.06;96349.50;2075886;28;20198;-60
2024/03/15 11:46:19;;;;;;;6.65;3.55;;;;;;;15.29;64.10;96341.72;2076336;28;21171;-60
2024/03/15 11:47:20;;;;;;;13.20;8.95;;;;;;;15.60;63.97;96349.31;2073494;28;20222;-60
2024/03/15 11:48:23;;;;;;;7.70;4.03;;;;;;;15.68;63.75;96344.34;2077753;28;20276;-60
2024/03/15 11:49:25;;;;;;;5.90;3.38;;;;;;;15.57;64.41;96345.09;2077060;28;20229;-60
2024/03/15 11:50:28;;;;;;;4.53;3.28;;;;;;;15.96;64.01;96345.91;2076328;28;20234;-60
2024/03/15 11:51:30;;;;;;;3.50;2.08;;;;;;;15.79;64.07;96362.84;2076932;28;20602;-60
2024/03/15 11:52:33;;;;;;;5.72;1.05;;;;;;;16.35;62.54;96351.03;2071753;28;20723;-61
2024/03/15 11:53:37;;;;;;;2.67;0.90;;;;;;;15.56;63.27;96348.66;2072466;28;20209;-60
2024/03/15 11:54:39;;;;;;;3.70;1.27;;;;;;;16.09;62.50;96337.13;2073467;28;20202;-59
2024/03/15 11:55:42;;;;;;;2.15;0.95;;;;;;;15.52;63.28;96337.50;2076457;28;20197;-60
2024/03/15 11:56:43;;;;;;;2.95;1.15;;;;;;;15.65;64.11;96357.72;2072644;28;20229;-60
2024/03/15 11:57:44;;;;;;;2.67;1.10;;;;;;;15.44;64.76;96352.13;2072787;28;20253;-59
2024/03/15 11:58:46;;;;;;;3.17;1.00;;;;;;;15.14;62.95;96351.50;2076776;28;20194;-60
2024/03/15 11:59:48;;;;;;;8.85;1.02;;;;;;;15.23;63.73;96347.41;2076528;28;20205;-60
2024/03/15 12:00:53;;;;;;;2.95;1.00;;;;;;;15.51;63.54;96349.00;2076843;28;20281;-64
2024/03/15 12:01:56;;;;;;;5.07;1.58;;;;;;;16.50;60.77;96346.44;2072980;28;20233;-65